sensor_id;sensor_type;location;lat;lon;timestamp;P1;durP1;ratioP1;P2;durP2;ratioP2
3959;SDS011;1994;48.640;8.894;2022-11-15T00:01:40;3.57;;;3.37;;
3959;SDS011;1994;48.640;8.894;2022-11-15T00:04:09;3.33;;;2.90;;
3959;SDS011;1994;48.640;8.894;2022-11-15T00:06:45;2.83;;;2.63;;
3959;SDS011;1994;48.640;8.894;2022-11-15T00:09:22;5.80;;;3.40;;
3959;SDS011;1994;48.640;8.894;2022-11-15T00:11:52;4.57;;;2.53;;
3959;SDS011;1994;48.640;8.894;2022-11-15T00:14:22;2.77;;;2.57;;
3959;SDS011;1994;48.640;8.894;2022-11-15T00:16:52;6.63;;;3.67;;
3959;SDS011;1994;48.640;8.894;2022-11-15T00:19:18;5.47;;;3.60;;
3959;SDS011;1994;48.640;8.894;2022-11-15T00:21:46;4.77;;;3.30;;
3959;SDS011;1994;48.640;8.894;2022-11-15T00:24:16;3.03;;;2.83;;
3959;SDS011;1994;48.640;8.894;2022-11-15T00:26:52;5.00;;;2.60;;
3959;SDS011;1994;48.640;8.894;2022-11-15T00:29:26;4.00;;;2.70;;
3959;SDS011;1994;48.640;8.894;2022-11-15T00:31:52;3.97;;;3.67;;
3959;SDS011;1994;48.640;8.894;2022-11-15T00:34:22;2.80;;;2.60;;
3959;SDS011;1994;48.640;8.894;2022-11-15T00:36:49;3.10;;;2.77;;
3959;SDS011;1994;48.640;8.894;2022-11-15T00:39:18;3.60;;;2.67;;
3959;SDS011;1994;48.640;8.894;2022-11-15T00:41:45;4.20;;;2.30;;
3959;SDS011;1994;48.640;8.894;2022-11-15T00:44:13;2.67;;;2.47;;
3959;SDS011;1994;48.640;8.894;2022-11-15T00:46:49;4.57;;;2.50;;
3959;SDS011;1994;48.640;8.894;2022-11-15T00:49:17;2.93;;;2.67;;
3959;SDS011;1994;48.640;8.894;2022-11-15T00:51:47;4.07;;;3.70;;
3959;SDS011;1994;48.640;8.894;2022-11-15T00:54:17;7.90;;;2.93;;
3959;SDS011;1994;48.640;8.894;2022-11-15T00:56:47;3.40;;;2.83;;
3959;SDS011;1994;48.640;8.894;2022-11-15T00:59:23;2.63;;;2.43;;
3959;SDS011;1994;48.640;8.894;2022-11-15T01:01:53;3.40;;;3.10;;
3959;SDS011;1994;48.640;8.894;2022-11-15T01:04:24;3.73;;;2.73;;
3959;SDS011;1994;48.640;8.894;2022-11-15T01:06:53;4.20;;;3.67;;
3959;SDS011;1994;48.640;8.894;2022-11-15T01:09:23;3.67;;;3.20;;
3959;SDS011;1994;48.640;8.894;2022-11-15T01:11:53;5.90;;;3.47;;
3959;SDS011;1994;48.640;8.894;2022-11-15T01:14:23;5.90;;;2.90;;
3959;SDS011;1994;48.640;8.894;2022-11-15T01:16:53;3.53;;;3.23;;
3959;SDS011;1994;48.640;8.894;2022-11-15T01:19:23;3.80;;;3.10;;
3959;SDS011;1994;48.640;8.894;2022-11-15T01:22:01;5.10;;;2.80;;
3959;SDS011;1994;48.640;8.894;2022-11-15T01:24:31;4.90;;;3.30;;
3959;SDS011;1994;48.640;8.894;2022-11-15T01:30:39;5.67;;;2.87;;
3959;SDS011;1994;48.640;8.894;2022-11-15T01:33:06;4.10;;;3.00;;
3959;SDS011;1994;48.640;8.894;2022-11-15T01:35:38;3.27;;;2.97;;
3959;SDS011;1994;48.640;8.894;2022-11-15T01:41:51;2.87;;;2.67;;
3959;SDS011;1994;48.640;8.894;2022-11-15T01:44:38;3.90;;;3.50;;
3959;SDS011;1994;48.640;8.894;2022-11-15T01:50:59;2.73;;;2.47;;
3959;SDS011;1994;48.640;8.894;2022-11-15T01:53:33;3.47;;;3.13;;
3959;SDS011;1994;48.640;8.894;2022-11-15T01:56:16;3.07;;;2.73;;
3959;SDS011;1994;48.640;8.894;2022-11-15T01:58:49;3.50;;;3.23;;
3959;SDS011;1994;48.640;8.894;2022-11-15T02:01:21;2.97;;;2.77;;
3959;SDS011;1994;48.640;8.894;2022-11-15T02:03:59;3.10;;;2.90;;
3959;SDS011;1994;48.640;8.894;2022-11-15T02:06:31;4.23;;;2.97;;
3959;SDS011;1994;48.640;8.894;2022-11-15T02:12:42;2.63;;;2.47;;
3959;SDS011;1994;48.640;8.894;2022-11-15T02:15:10;3.27;;;2.73;;
3959;SDS011;1994;48.640;8.894;2022-11-15T02:21:33;3.33;;;2.83;;
3959;SDS011;1994;48.640;8.894;2022-11-15T02:37:33;2.70;;;2.50;;
3959;SDS011;1994;48.640;8.894;2022-11-15T02:49:37;4.03;;;2.80;;
3959;SDS011;1994;48.640;8.894;2022-11-15T02:52:21;3.53;;;2.90;;
3959;SDS011;1994;48.640;8.894;2022-11-15T02:54:53;3.17;;;2.77;;
3959;SDS011;1994;48.640;8.894;2022-11-15T03:00:20;4.60;;;3.27;;
3959;SDS011;1994;48.640;8.894;2022-11-15T03:03:02;3.27;;;2.97;;
3959;SDS011;1994;48.640;8.894;2022-11-15T03:05:51;4.80;;;2.60;;
3959;SDS011;1994;48.640;8.894;2022-11-15T03:15:10;3.50;;;3.13;;
3959;SDS011;1994;48.640;8.894;2022-11-15T03:18:37;2.93;;;2.73;;
3959;SDS011;1994;48.640;8.894;2022-11-15T03:21:13;3.03;;;2.73;;
3959;SDS011;1994;48.640;8.894;2022-11-15T03:23:44;3.13;;;2.83;;
3959;SDS011;1994;48.640;8.894;2022-11-15T03:26:18;4.63;;;2.80;;
3959;SDS011;1994;48.640;8.894;2022-11-15T03:32:16;3.10;;;2.70;;
3959;SDS011;1994;48.640;8.894;2022-11-15T03:34:56;4.60;;;3.13;;
3959;SDS011;1994;48.640;8.894;2022-11-15T03:42:03;3.60;;;3.30;;
3959;SDS011;1994;48.640;8.894;2022-11-15T03:45:08;3.30;;;3.00;;
3959;SDS011;1994;48.640;8.894;2022-11-15T03:47:42;2.97;;;2.77;;
3959;SDS011;1994;48.640;8.894;2022-11-15T03:50:26;3.07;;;2.77;;
3959;SDS011;1994;48.640;8.894;2022-11-15T03:52:54;3.27;;;2.83;;
3959;SDS011;1994;48.640;8.894;2022-11-15T03:55:21;3.10;;;2.80;;
3959;SDS011;1994;48.640;8.894;2022-11-15T04:01:34;5.23;;;3.13;;
3959;SDS011;1994;48.640;8.894;2022-11-15T04:04:01;4.47;;;3.00;;
3959;SDS011;1994;48.640;8.894;2022-11-15T04:06:35;2.43;;;2.20;;
3959;SDS011;1994;48.640;8.894;2022-11-15T04:09:13;2.90;;;2.70;;
3959;SDS011;1994;48.640;8.894;2022-11-15T04:11:40;3.90;;;3.60;;
3959;SDS011;1994;48.640;8.894;2022-11-15T04:14:11;4.63;;;3.93;;
3959;SDS011;1994;48.640;8.894;2022-11-15T04:16:44;3.47;;;3.17;;
3959;SDS011;1994;48.640;8.894;2022-11-15T04:19:17;4.43;;;3.60;;
3959;SDS011;1994;48.640;8.894;2022-11-15T04:22:11;3.50;;;3.20;;
3959;SDS011;1994;48.640;8.894;2022-11-15T04:24:57;3.60;;;3.30;;
3959;SDS011;1994;48.640;8.894;2022-11-15T04:31:05;6.47;;;3.17;;
3959;SDS011;1994;48.640;8.894;2022-11-15T04:33:31;4.43;;;3.73;;
3959;SDS011;1994;48.640;8.894;2022-11-15T04:35:58;2.80;;;2.60;;
3959;SDS011;1994;48.640;8.894;2022-11-15T04:42:19;4.40;;;3.13;;
3959;SDS011;1994;48.640;8.894;2022-11-15T04:44:49;3.63;;;3.30;;
3959;SDS011;1994;48.640;8.894;2022-11-15T04:47:16;3.17;;;2.97;;
3959;SDS011;1994;48.640;8.894;2022-11-15T04:49:47;3.93;;;2.70;;
3959;SDS011;1994;48.640;8.894;2022-11-15T04:52:13;3.17;;;2.87;;
3959;SDS011;1994;48.640;8.894;2022-11-15T04:54:42;3.13;;;2.83;;
3959;SDS011;1994;48.640;8.894;2022-11-15T05:00:53;26.83;;;14.63;;
3959;SDS011;1994;48.640;8.894;2022-11-15T05:03:19;11.27;;;8.03;;
3959;SDS011;1994;48.640;8.894;2022-11-15T05:06:12;13.87;;;7.87;;
3959;SDS011;1994;48.640;8.894;2022-11-15T05:08:44;41.63;;;23.80;;
3959;SDS011;1994;48.640;8.894;2022-11-15T05:11:16;13.73;;;9.70;;
3959;SDS011;1994;48.640;8.894;2022-11-15T05:13:46;6.73;;;5.10;;
3959;SDS011;1994;48.640;8.894;2022-11-15T05:16:14;8.57;;;6.77;;
3959;SDS011;1994;48.640;8.894;2022-11-15T05:18:42;5.20;;;4.63;;
3959;SDS011;1994;48.640;8.894;2022-11-15T05:21:14;6.13;;;3.50;;
3959;SDS011;1994;48.640;8.894;2022-11-15T05:23:40;2.70;;;2.50;;
3959;SDS011;1994;48.640;8.894;2022-11-15T05:26:08;2.67;;;2.47;;
3959;SDS011;1994;48.640;8.894;2022-11-15T05:32:21;7.73;;;3.20;;
3959;SDS011;1994;48.640;8.894;2022-11-15T05:34:52;5.10;;;4.03;;
3959;SDS011;1994;48.640;8.894;2022-11-15T05:37:21;3.40;;;3.00;;
3959;SDS011;1994;48.640;8.894;2022-11-15T05:39:53;8.63;;;5.53;;
3959;SDS011;1994;48.640;8.894;2022-11-15T05:42:30;5.17;;;4.67;;
3959;SDS011;1994;48.640;8.894;2022-11-15T05:44:59;6.37;;;5.60;;
3959;SDS011;1994;48.640;8.894;2022-11-15T05:47:31;8.80;;;4.73;;
3959;SDS011;1994;48.640;8.894;2022-11-15T05:50:00;6.33;;;4.87;;
3959;SDS011;1994;48.640;8.894;2022-11-15T05:52:33;4.93;;;4.40;;
3959;SDS011;1994;48.640;8.894;2022-11-15T05:55:02;5.50;;;5.00;;
3959;SDS011;1994;48.640;8.894;2022-11-15T06:01:02;5.67;;;4.20;;
3959;SDS011;1994;48.640;8.894;2022-11-15T06:03:31;4.90;;;4.40;;
3959;SDS011;1994;48.640;8.894;2022-11-15T06:06:00;7.57;;;4.30;;
3959;SDS011;1994;48.640;8.894;2022-11-15T06:12:13;7.30;;;4.77;;
3959;SDS011;1994;48.640;8.894;2022-11-15T06:14:42;5.70;;;4.63;;
3959;SDS011;1994;48.640;8.894;2022-11-15T06:20:57;13.93;;;8.43;;
3959;SDS011;1994;48.640;8.894;2022-11-15T06:27:10;7.20;;;5.90;;
3959;SDS011;1994;48.640;8.894;2022-11-15T06:29:39;5.50;;;5.00;;
3959;SDS011;1994;48.640;8.894;2022-11-15T06:32:12;9.80;;;6.03;;
3959;SDS011;1994;48.640;8.894;2022-11-15T06:34:39;6.50;;;5.67;;
3959;SDS011;1994;48.640;8.894;2022-11-15T06:37:06;8.03;;;6.00;;
3959;SDS011;1994;48.640;8.894;2022-11-15T06:39:37;13.10;;;6.17;;
3959;SDS011;1994;48.640;8.894;2022-11-15T06:42:16;12.40;;;6.20;;
3959;SDS011;1994;48.640;8.894;2022-11-15T06:44:49;15.40;;;7.00;;
3959;SDS011;1994;48.640;8.894;2022-11-15T06:47:16;6.97;;;6.27;;
3959;SDS011;1994;48.640;8.894;2022-11-15T06:49:46;11.50;;;8.37;;
3959;SDS011;1994;48.640;8.894;2022-11-15T06:52:19;8.07;;;6.07;;
3959;SDS011;1994;48.640;8.894;2022-11-15T06:54:50;6.60;;;6.00;;
3959;SDS011;1994;48.640;8.894;2022-11-15T07:00:59;5.87;;;5.00;;
3959;SDS011;1994;48.640;8.894;2022-11-15T07:03:29;11.33;;;5.70;;
3959;SDS011;1994;48.640;8.894;2022-11-15T07:05:59;6.10;;;4.93;;
3959;SDS011;1994;48.640;8.894;2022-11-15T07:12:15;5.30;;;4.80;;
3959;SDS011;1994;48.640;8.894;2022-11-15T07:14:41;5.83;;;5.20;;
3959;SDS011;1994;48.640;8.894;2022-11-15T07:17:08;5.47;;;4.77;;
3959;SDS011;1994;48.640;8.894;2022-11-15T07:19:37;6.30;;;4.70;;
3959;SDS011;1994;48.640;8.894;2022-11-15T07:22:04;7.93;;;5.50;;
3959;SDS011;1994;48.640;8.894;2022-11-15T07:24:40;6.77;;;5.90;;
3959;SDS011;1994;48.640;8.894;2022-11-15T07:27:20;14.80;;;9.20;;
3959;SDS011;1994;48.640;8.894;2022-11-15T07:29:48;11.10;;;9.60;;
3959;SDS011;1994;48.640;8.894;2022-11-15T07:32:26;19.40;;;17.30;;
3959;SDS011;1994;48.640;8.894;2022-11-15T07:34:52;17.00;;;9.10;;
3959;SDS011;1994;48.640;8.894;2022-11-15T07:37:21;7.30;;;5.47;;
3959;SDS011;1994;48.640;8.894;2022-11-15T07:39:49;5.27;;;4.80;;
3959;SDS011;1994;48.640;8.894;2022-11-15T07:42:15;4.87;;;4.47;;
3959;SDS011;1994;48.640;8.894;2022-11-15T07:45:00;5.30;;;4.20;;
3959;SDS011;1994;48.640;8.894;2022-11-15T07:51:12;7.10;;;3.70;;
3959;SDS011;1994;48.640;8.894;2022-11-15T07:53:51;5.50;;;4.63;;
3959;SDS011;1994;48.640;8.894;2022-11-15T07:56:17;5.90;;;5.40;;
3959;SDS011;1994;48.640;8.894;2022-11-15T07:58:51;7.60;;;6.80;;
3959;SDS011;1994;48.640;8.894;2022-11-15T08:01:26;4.70;;;4.30;;
3959;SDS011;1994;48.640;8.894;2022-11-15T08:03:57;3.90;;;3.50;;
3959;SDS011;1994;48.640;8.894;2022-11-15T08:06:23;4.00;;;3.70;;
3959;SDS011;1994;48.640;8.894;2022-11-15T08:08:52;5.30;;;4.23;;
3959;SDS011;1994;48.640;8.894;2022-11-15T08:11:23;2.57;;;2.47;;
3959;SDS011;1994;48.640;8.894;2022-11-15T08:13:49;4.33;;;3.90;;
3959;SDS011;1994;48.640;8.894;2022-11-15T08:16:19;5.30;;;4.80;;
3959;SDS011;1994;48.640;8.894;2022-11-15T08:22:10;8.73;;;4.60;;
3959;SDS011;1994;48.640;8.894;2022-11-15T08:24:37;2.70;;;2.50;;
3959;SDS011;1994;48.640;8.894;2022-11-15T08:27:05;5.00;;;3.60;;
3959;SDS011;1994;48.640;8.894;2022-11-15T08:29:49;10.13;;;2.93;;
3959;SDS011;1994;48.640;8.894;2022-11-15T08:32:23;2.40;;;2.30;;
3959;SDS011;1994;48.640;8.894;2022-11-15T08:34:53;3.80;;;2.87;;
3959;SDS011;1994;48.640;8.894;2022-11-15T08:40:50;2.40;;;2.30;;
3959;SDS011;1994;48.640;8.894;2022-11-15T08:43:26;3.20;;;2.90;;
3959;SDS011;1994;48.640;8.894;2022-11-15T08:46:00;5.43;;;4.93;;
3959;SDS011;1994;48.640;8.894;2022-11-15T08:52:19;3.53;;;3.23;;
3959;SDS011;1994;48.640;8.894;2022-11-15T08:54:48;3.87;;;3.10;;
3959;SDS011;1994;48.640;8.894;2022-11-15T09:01:02;3.20;;;2.90;;
3959;SDS011;1994;48.640;8.894;2022-11-15T09:03:31;5.47;;;3.10;;
3959;SDS011;1994;48.640;8.894;2022-11-15T09:05:59;3.37;;;3.07;;
3959;SDS011;1994;48.640;8.894;2022-11-15T09:12:12;12.80;;;4.80;;
3959;SDS011;1994;48.640;8.894;2022-11-15T09:18:26;4.60;;;4.20;;
3959;SDS011;1994;48.640;8.894;2022-11-15T09:20:58;3.33;;;3.10;;
3959;SDS011;1994;48.640;8.894;2022-11-15T09:23:32;3.20;;;2.90;;
3959;SDS011;1994;48.640;8.894;2022-11-15T09:26:11;4.27;;;3.17;;
3959;SDS011;1994;48.640;8.894;2022-11-15T09:32:23;2.50;;;2.30;;
3959;SDS011;1994;48.640;8.894;2022-11-15T09:34:53;2.70;;;2.50;;
3959;SDS011;1994;48.640;8.894;2022-11-15T09:37:22;2.63;;;2.40;;
3959;SDS011;1994;48.640;8.894;2022-11-15T09:39:52;3.07;;;2.37;;
3959;SDS011;1994;48.640;8.894;2022-11-15T09:44:56;6.27;;;3.10;;
3959;SDS011;1994;48.640;8.894;2022-11-15T09:51:14;3.40;;;3.10;;
3959;SDS011;1994;48.640;8.894;2022-11-15T09:59:46;6.07;;;3.77;;
3959;SDS011;1994;48.640;8.894;2022-11-15T10:03:11;3.20;;;2.90;;
3959;SDS011;1994;48.640;8.894;2022-11-15T10:05:39;2.80;;;2.60;;
3959;SDS011;1994;48.640;8.894;2022-11-15T10:08:13;3.80;;;2.53;;
3959;SDS011;1994;48.640;8.894;2022-11-15T10:11:11;2.70;;;2.50;;
3959;SDS011;1994;48.640;8.894;2022-11-15T10:13:51;2.83;;;2.60;;
3959;SDS011;1994;48.640;8.894;2022-11-15T10:16:36;3.90;;;2.20;;
3959;SDS011;1994;48.640;8.894;2022-11-15T10:25:26;2.00;;;1.90;;
3959;SDS011;1994;48.640;8.894;2022-11-15T10:31:42;2.60;;;2.40;;
3959;SDS011;1994;48.640;8.894;2022-11-15T10:34:19;2.57;;;2.37;;
3959;SDS011;1994;48.640;8.894;2022-11-15T10:36:56;3.67;;;2.93;;
3959;SDS011;1994;48.640;8.894;2022-11-15T10:39:27;3.47;;;2.60;;
3959;SDS011;1994;48.640;8.894;2022-11-15T10:42:17;2.70;;;2.47;;
3959;SDS011;1994;48.640;8.894;2022-11-15T10:45:01;3.40;;;2.83;;
3959;SDS011;1994;48.640;8.894;2022-11-15T11:01:28;3.20;;;3.00;;
3959;SDS011;1994;48.640;8.894;2022-11-15T11:06:52;3.40;;;3.10;;
3959;SDS011;1994;48.640;8.894;2022-11-15T11:09:32;4.60;;;3.93;;
3959;SDS011;1994;48.640;8.894;2022-11-15T11:12:10;3.60;;;3.30;;
3959;SDS011;1994;48.640;8.894;2022-11-15T11:14:38;6.30;;;4.33;;
3959;SDS011;1994;48.640;8.894;2022-11-15T11:32:29;11.30;;;6.90;;
3959;SDS011;1994;48.640;8.894;2022-11-15T11:41:46;7.13;;;2.80;;
3959;SDS011;1994;48.640;8.894;2022-11-15T11:51:10;2.93;;;2.73;;
3959;SDS011;1994;48.640;8.894;2022-11-15T11:53:51;4.50;;;2.60;;
3959;SDS011;1994;48.640;8.894;2022-11-15T11:56:56;2.70;;;2.50;;
3959;SDS011;1994;48.640;8.894;2022-11-15T12:02:47;2.97;;;2.53;;
3959;SDS011;1994;48.640;8.894;2022-11-15T12:05:44;2.60;;;2.17;;
3959;SDS011;1994;48.640;8.894;2022-11-15T12:09:01;2.67;;;2.47;;
3959;SDS011;1994;48.640;8.894;2022-11-15T12:12:15;3.13;;;2.70;;
3959;SDS011;1994;48.640;8.894;2022-11-15T12:14:53;5.70;;;2.63;;
3959;SDS011;1994;48.640;8.894;2022-11-15T12:21:27;2.80;;;2.60;;
3959;SDS011;1994;48.640;8.894;2022-11-15T12:24:34;3.50;;;3.27;;
3959;SDS011;1994;48.640;8.894;2022-11-15T12:31:06;3.33;;;2.80;;
3959;SDS011;1994;48.640;8.894;2022-11-15T12:33:56;3.70;;;2.80;;
3959;SDS011;1994;48.640;8.894;2022-11-15T12:36:40;6.10;;;3.30;;
3959;SDS011;1994;48.640;8.894;2022-11-15T12:39:12;3.20;;;2.57;;
3959;SDS011;1994;48.640;8.894;2022-11-15T12:41:45;5.83;;;3.13;;
3959;SDS011;1994;48.640;8.894;2022-11-15T13:02:18;7.17;;;3.53;;
3959;SDS011;1994;48.640;8.894;2022-11-15T13:08:41;2.50;;;2.10;;
3959;SDS011;1994;48.640;8.894;2022-11-15T13:20:30;3.30;;;2.03;;
3959;SDS011;1994;48.640;8.894;2022-11-15T13:23:02;2.80;;;2.60;;
3959;SDS011;1994;48.640;8.894;2022-11-15T13:25:56;2.70;;;2.60;;
3959;SDS011;1994;48.640;8.894;2022-11-15T13:32:19;3.80;;;2.90;;
3959;SDS011;1994;48.640;8.894;2022-11-15T13:34:54;2.97;;;2.53;;
3959;SDS011;1994;48.640;8.894;2022-11-15T13:41:16;2.60;;;2.40;;
3959;SDS011;1994;48.640;8.894;2022-11-15T13:43:48;5.13;;;4.63;;
3959;SDS011;1994;48.640;8.894;2022-11-15T13:46:27;3.17;;;2.97;;
3959;SDS011;1994;48.640;8.894;2022-11-15T13:52:47;5.67;;;3.83;;
3959;SDS011;1994;48.640;8.894;2022-11-15T13:55:21;3.97;;;3.67;;
3959;SDS011;1994;48.640;8.894;2022-11-15T14:01:34;4.60;;;4.20;;
3959;SDS011;1994;48.640;8.894;2022-11-15T14:04:02;4.10;;;3.70;;
3959;SDS011;1994;48.640;8.894;2022-11-15T14:06:31;4.63;;;4.23;;
3959;SDS011;1994;48.640;8.894;2022-11-15T14:12:35;3.50;;;3.30;;
3959;SDS011;1994;48.640;8.894;2022-11-15T14:15:26;3.83;;;3.63;;
3959;SDS011;1994;48.640;8.894;2022-11-15T14:31:34;3.73;;;3.33;;
3959;SDS011;1994;48.640;8.894;2022-11-15T14:34:02;3.30;;;3.00;;
3959;SDS011;1994;48.640;8.894;2022-11-15T14:36:32;3.57;;;3.27;;
3959;SDS011;1994;48.640;8.894;2022-11-15T14:42:44;9.57;;;3.57;;
3959;SDS011;1994;48.640;8.894;2022-11-15T14:45:20;5.00;;;4.60;;
3959;SDS011;1994;48.640;8.894;2022-11-15T14:55:00;6.40;;;4.57;;
3959;SDS011;1994;48.640;8.894;2022-11-15T15:01:24;5.20;;;3.63;;
3959;SDS011;1994;48.640;8.894;2022-11-15T15:03:52;5.23;;;3.80;;
3959;SDS011;1994;48.640;8.894;2022-11-15T15:06:35;4.13;;;3.50;;
3959;SDS011;1994;48.640;8.894;2022-11-15T15:12:32;4.33;;;3.80;;
3959;SDS011;1994;48.640;8.894;2022-11-15T15:15:04;4.90;;;4.40;;
3959;SDS011;1994;48.640;8.894;2022-11-15T15:18:03;6.40;;;4.70;;
3959;SDS011;1994;48.640;8.894;2022-11-15T15:20:37;4.67;;;4.20;;
3959;SDS011;1994;48.640;8.894;2022-11-15T15:23:15;5.30;;;4.80;;
3959;SDS011;1994;48.640;8.894;2022-11-15T15:25:48;5.00;;;4.60;;
3959;SDS011;1994;48.640;8.894;2022-11-15T15:31:55;3.83;;;3.53;;
3959;SDS011;1994;48.640;8.894;2022-11-15T15:34:24;5.17;;;4.67;;
3959;SDS011;1994;48.640;8.894;2022-11-15T15:40:27;5.20;;;4.70;;
3959;SDS011;1994;48.640;8.894;2022-11-15T15:43:06;7.03;;;6.33;;
3959;SDS011;1994;48.640;8.894;2022-11-15T15:45:37;7.80;;;6.10;;
3959;SDS011;1994;48.640;8.894;2022-11-15T15:48:10;6.63;;;5.90;;
3959;SDS011;1994;48.640;8.894;2022-11-15T15:50:41;11.80;;;7.13;;
3959;SDS011;1994;48.640;8.894;2022-11-15T15:53:15;12.43;;;6.33;;
3959;SDS011;1994;48.640;8.894;2022-11-15T15:55:45;8.90;;;7.70;;
3959;SDS011;1994;48.640;8.894;2022-11-15T15:58:14;11.27;;;8.03;;
3959;SDS011;1994;48.640;8.894;2022-11-15T16:00:44;13.00;;;8.83;;
3959;SDS011;1994;48.640;8.894;2022-11-15T16:03:21;12.97;;;8.73;;
3959;SDS011;1994;48.640;8.894;2022-11-15T16:05:55;13.67;;;9.07;;
3959;SDS011;1994;48.640;8.894;2022-11-15T16:08:26;12.80;;;10.07;;
3959;SDS011;1994;48.640;8.894;2022-11-15T16:10:55;10.63;;;8.13;;
3959;SDS011;1994;48.640;8.894;2022-11-15T16:13:25;10.60;;;7.93;;
3959;SDS011;1994;48.640;8.894;2022-11-15T16:15:52;11.30;;;7.37;;
3959;SDS011;1994;48.640;8.894;2022-11-15T16:22:06;8.93;;;4.90;;
3959;SDS011;1994;48.640;8.894;2022-11-15T16:24:39;7.90;;;4.90;;
3959;SDS011;1994;48.640;8.894;2022-11-15T16:27:19;7.50;;;5.70;;
3959;SDS011;1994;48.640;8.894;2022-11-15T16:29:54;6.53;;;5.80;;
3959;SDS011;1994;48.640;8.894;2022-11-15T16:32:21;7.10;;;5.53;;
3959;SDS011;1994;48.640;8.894;2022-11-15T16:34:55;8.90;;;7.13;;
3959;SDS011;1994;48.640;8.894;2022-11-15T16:41:24;7.67;;;6.87;;
3959;SDS011;1994;48.640;8.894;2022-11-15T16:43:51;7.93;;;6.80;;
3959;SDS011;1994;48.640;8.894;2022-11-15T16:46:20;11.13;;;8.63;;
3959;SDS011;1994;48.640;8.894;2022-11-15T16:48:52;13.87;;;7.30;;
3959;SDS011;1994;48.640;8.894;2022-11-15T16:51:25;9.00;;;7.30;;
3959;SDS011;1994;48.640;8.894;2022-11-15T16:54:03;6.13;;;5.50;;
3959;SDS011;1994;48.640;8.894;2022-11-15T16:56:30;5.97;;;4.80;;
3959;SDS011;1994;48.640;8.894;2022-11-15T16:59:01;4.80;;;4.40;;
3959;SDS011;1994;48.640;8.894;2022-11-15T17:01:35;5.23;;;4.73;;
3959;SDS011;1994;48.640;8.894;2022-11-15T17:04:19;11.47;;;8.00;;
3959;SDS011;1994;48.640;8.894;2022-11-15T17:07:00;40.93;;;18.53;;
3959;SDS011;1994;48.640;8.894;2022-11-15T17:09:31;39.27;;;17.73;;
3959;SDS011;1994;48.640;8.894;2022-11-15T17:12:01;36.37;;;16.47;;
3959;SDS011;1994;48.640;8.894;2022-11-15T17:14:30;14.70;;;8.93;;
3959;SDS011;1994;48.640;8.894;2022-11-15T17:17:00;10.57;;;6.27;;
3959;SDS011;1994;48.640;8.894;2022-11-15T17:19:27;11.73;;;6.00;;
3959;SDS011;1994;48.640;8.894;2022-11-15T17:21:57;12.00;;;9.00;;
3959;SDS011;1994;48.640;8.894;2022-11-15T17:24:27;9.80;;;7.77;;
3959;SDS011;1994;48.640;8.894;2022-11-15T17:26:58;19.30;;;9.13;;
3959;SDS011;1994;48.640;8.894;2022-11-15T17:29:28;8.70;;;7.23;;
3959;SDS011;1994;48.640;8.894;2022-11-15T17:32:06;13.40;;;7.33;;
3959;SDS011;1994;48.640;8.894;2022-11-15T17:34:38;8.90;;;8.00;;
3959;SDS011;1994;48.640;8.894;2022-11-15T17:37:08;12.47;;;7.53;;
3959;SDS011;1994;48.640;8.894;2022-11-15T17:39:38;8.37;;;7.43;;
3959;SDS011;1994;48.640;8.894;2022-11-15T17:42:08;11.17;;;8.47;;
3959;SDS011;1994;48.640;8.894;2022-11-15T17:44:41;16.70;;;9.30;;
3959;SDS011;1994;48.640;8.894;2022-11-15T17:47:08;17.10;;;11.37;;
3959;SDS011;1994;48.640;8.894;2022-11-15T17:49:34;18.10;;;10.10;;
3959;SDS011;1994;48.640;8.894;2022-11-15T17:52:08;12.10;;;10.23;;
3959;SDS011;1994;48.640;8.894;2022-11-15T17:54:36;11.83;;;8.93;;
3959;SDS011;1994;48.640;8.894;2022-11-15T17:57:12;15.80;;;11.20;;
3959;SDS011;1994;48.640;8.894;2022-11-15T17:59:42;13.33;;;9.27;;
3959;SDS011;1994;48.640;8.894;2022-11-15T18:02:13;20.50;;;10.67;;
3959;SDS011;1994;48.640;8.894;2022-11-15T18:04:46;15.70;;;10.60;;
3959;SDS011;1994;48.640;8.894;2022-11-15T18:10:46;17.30;;;9.20;;
3959;SDS011;1994;48.640;8.894;2022-11-15T18:13:16;28.20;;;11.40;;
3959;SDS011;1994;48.640;8.894;2022-11-15T18:15:53;13.17;;;9.40;;
3959;SDS011;1994;48.640;8.894;2022-11-15T18:22:02;5.33;;;4.83;;
3959;SDS011;1994;48.640;8.894;2022-11-15T18:24:43;8.50;;;5.60;;
3959;SDS011;1994;48.640;8.894;2022-11-15T18:30:38;6.87;;;6.17;;
3959;SDS011;1994;48.640;8.894;2022-11-15T18:33:17;8.97;;;6.37;;
3959;SDS011;1994;48.640;8.894;2022-11-15T18:35:58;14.53;;;8.37;;
3959;SDS011;1994;48.640;8.894;2022-11-15T18:42:09;8.90;;;6.80;;
3959;SDS011;1994;48.640;8.894;2022-11-15T18:44:39;8.70;;;6.20;;
3959;SDS011;1994;48.640;8.894;2022-11-15T18:50:47;8.10;;;7.10;;
3959;SDS011;1994;48.640;8.894;2022-11-15T18:53:18;8.90;;;8.00;;
3959;SDS011;1994;48.640;8.894;2022-11-15T18:55:51;12.60;;;8.87;;
3959;SDS011;1994;48.640;8.894;2022-11-15T19:02:07;10.47;;;8.57;;
3959;SDS011;1994;48.640;8.894;2022-11-15T19:08:30;13.33;;;7.80;;
3959;SDS011;1994;48.640;8.894;2022-11-15T19:11:17;8.60;;;7.70;;
3959;SDS011;1994;48.640;8.894;2022-11-15T19:13:58;14.40;;;8.00;;
3959;SDS011;1994;48.640;8.894;2022-11-15T19:16:31;10.53;;;8.77;;
3959;SDS011;1994;48.640;8.894;2022-11-15T19:22:42;10.80;;;7.90;;
3959;SDS011;1994;48.640;8.894;2022-11-15T19:25:12;10.37;;;8.70;;
3959;SDS011;1994;48.640;8.894;2022-11-15T19:31:27;9.43;;;8.43;;
3959;SDS011;1994;48.640;8.894;2022-11-15T19:41:05;10.83;;;8.70;;
3959;SDS011;1994;48.640;8.894;2022-11-15T19:43:40;17.53;;;12.03;;
3959;SDS011;1994;48.640;8.894;2022-11-15T19:46:09;19.57;;;11.87;;
3959;SDS011;1994;48.640;8.894;2022-11-15T19:52:10;13.57;;;10.37;;
3959;SDS011;1994;48.640;8.894;2022-11-15T19:54:48;10.60;;;9.50;;
3959;SDS011;1994;48.640;8.894;2022-11-15T19:57:18;12.87;;;9.60;;
3959;SDS011;1994;48.640;8.894;2022-11-15T19:59:54;14.57;;;11.90;;
3959;SDS011;1994;48.640;8.894;2022-11-15T20:06:05;22.00;;;14.47;;
3959;SDS011;1994;48.640;8.894;2022-11-15T20:12:28;10.47;;;8.30;;
3959;SDS011;1994;48.640;8.894;2022-11-15T20:14:58;13.43;;;9.77;;
3959;SDS011;1994;48.640;8.894;2022-11-15T20:17:25;15.83;;;10.83;;
3959;SDS011;1994;48.640;8.894;2022-11-15T20:19:55;14.43;;;11.30;;
3959;SDS011;1994;48.640;8.894;2022-11-15T20:22:23;13.27;;;10.57;;
3959;SDS011;1994;48.640;8.894;2022-11-15T20:24:52;19.97;;;11.20;;
3959;SDS011;1994;48.640;8.894;2022-11-15T20:30:57;15.03;;;9.33;;
3959;SDS011;1994;48.640;8.894;2022-11-15T20:33:24;15.10;;;9.60;;
3959;SDS011;1994;48.640;8.894;2022-11-15T20:35:56;13.50;;;9.90;;
3959;SDS011;1994;48.640;8.894;2022-11-15T20:38:28;10.70;;;8.87;;
3959;SDS011;1994;48.640;8.894;2022-11-15T20:40:55;9.50;;;8.50;;
3959;SDS011;1994;48.640;8.894;2022-11-15T20:43:22;10.07;;;7.73;;
3959;SDS011;1994;48.640;8.894;2022-11-15T20:45:52;9.13;;;7.87;;
3959;SDS011;1994;48.640;8.894;2022-11-15T20:48:25;12.80;;;9.13;;
3959;SDS011;1994;48.640;8.894;2022-11-15T20:51:31;11.03;;;9.10;;
3959;SDS011;1994;48.640;8.894;2022-11-15T20:53:53;15.47;;;9.90;;
3959;SDS011;1994;48.640;8.894;2022-11-15T20:56:28;39.90;;;25.77;;
3959;SDS011;1994;48.640;8.894;2022-11-15T21:02:40;15.00;;;9.90;;
3959;SDS011;1994;48.640;8.894;2022-11-15T21:05:08;15.87;;;9.37;;
3959;SDS011;1994;48.640;8.894;2022-11-15T21:07:34;14.73;;;9.83;;
3959;SDS011;1994;48.640;8.894;2022-11-15T21:10:08;13.63;;;8.70;;
3959;SDS011;1994;48.640;8.894;2022-11-15T21:12:59;14.10;;;10.40;;
3959;SDS011;1994;48.640;8.894;2022-11-15T21:15:28;15.40;;;10.73;;
3959;SDS011;1994;48.640;8.894;2022-11-15T21:21:20;12.07;;;9.00;;
3959;SDS011;1994;48.640;8.894;2022-11-15T21:23:49;17.43;;;13.07;;
3959;SDS011;1994;48.640;8.894;2022-11-15T21:26:19;13.93;;;10.80;;
3959;SDS011;1994;48.640;8.894;2022-11-15T21:32:33;9.27;;;8.00;;
3959;SDS011;1994;48.640;8.894;2022-11-15T21:35:03;9.43;;;6.80;;
3959;SDS011;1994;48.640;8.894;2022-11-15T21:37:34;8.80;;;5.90;;
3959;SDS011;1994;48.640;8.894;2022-11-15T21:40:01;7.50;;;4.20;;
3959;SDS011;1994;48.640;8.894;2022-11-15T21:42:38;4.33;;;3.93;;
3959;SDS011;1994;48.640;8.894;2022-11-15T21:45:12;5.20;;;4.07;;
3959;SDS011;1994;48.640;8.894;2022-11-15T21:47:42;4.93;;;4.40;;
3959;SDS011;1994;48.640;8.894;2022-11-15T21:50:11;3.73;;;3.37;;
3959;SDS011;1994;48.640;8.894;2022-11-15T21:52:45;4.27;;;3.90;;
3959;SDS011;1994;48.640;8.894;2022-11-15T21:55:16;4.27;;;3.60;;
3959;SDS011;1994;48.640;8.894;2022-11-15T22:01:27;6.33;;;5.17;;